OAMS Airport Information

Runway Information
Runway 06L Length 10437 ft width 146 ft
Elevation 1278 ft Threshold 535 ft Heading 66
Runway 24R Length 10437 ft Width 146 ft
Elevation 1256 ft Threshold 1733 ft Heading 246
Runway 06R Length 9843 ft width 147 ft
Elevation 1287 ft Threshold 0 ft Heading 66
Runway 24L Length 9843 ft Width 147 ft
Elevation 1252 ft Threshold 0 ft Heading 246
Airport Frequencies
Type CONTROL Name MAZAR CONT Frequency 121.25 MHZ
Type TWR Name TWR Frequency 132 MHZ
Airport Navaids
Airport Weather Information & NOTAM
ADDS - METARS form results

(1048 UTC 19 September 2018)
Data provider http://aviationweather.gov/metar/data/
 
Forecast for: OAMS (MAZAR-I-SHARIF , AF)
Text: TAF OAMS 190505Z 1906/2006 33010KT 9999 NSW SKC
Forecast period: 0600 to 1500 UTC 19 September 2018
Forecast type: FROM: standard forecast or significant change
Winds: from the NNW (330 degrees) at 12 MPH (10 knots; 5.1 m/s)
Visibility: 6 or more miles 10+ km)
Clouds: clear skies
Weather: NSW  (no significant weather)
Text: BECMG 1915/1917 21008KT 9999 NSW SKC
Forecast period: 1500 UTC 19 September 2018 to 0600 UTC 20 September 2018
Forecast type: BECOMING: Conditions expected to become as follows by 1700 UTC 19 September 2018
Winds: from the SSW (210 degrees) at 9 MPH (8 knots; 4.1 m/s)
Visibility: 6 or more miles 10+ km)
Clouds: clear skies
Weather: NSW  (no significant weather)